sensor_id;sensor_type;location;lat;lon;timestamp;pressure;altitude;pressure_sealevel;temperature;humidity
71457;BME280;59263;48.160;11.752;2022-09-24T00:01:14;95672.19;;;9.53;100.00
71457;BME280;59263;48.160;11.752;2022-09-24T00:03:42;95669.72;;;9.52;100.00
71457;BME280;59263;48.160;11.752;2022-09-24T00:06:10;95673.66;;;9.56;100.00
71457;BME280;59263;48.160;11.752;2022-09-24T00:08:38;95667.94;;;9.52;100.00
71457;BME280;59263;48.160;11.752;2022-09-24T00:11:06;95666.31;;;9.51;100.00
71457;BME280;59263;48.160;11.752;2022-09-24T00:13:33;95668.38;;;9.48;100.00
71457;BME280;59263;48.160;11.752;2022-09-24T00:16:04;95666.31;;;9.51;100.00
71457;BME280;59263;48.160;11.752;2022-09-24T00:18:30;95657.06;;;9.49;100.00
71457;BME280;59263;48.160;11.752;2022-09-24T00:20:56;95661.97;;;9.52;100.00
71457;BME280;59263;48.160;11.752;2022-09-24T00:23:21;95659.00;;;9.47;100.00
71457;BME280;59263;48.160;11.752;2022-09-24T00:25:47;95656.16;;;9.50;100.00
71457;BME280;59263;48.160;11.752;2022-09-24T00:28:31;95651.09;;;9.48;100.00
71457;BME280;59263;48.160;11.752;2022-09-24T00:30:57;95649.88;;;9.52;100.00
71457;BME280;59263;48.160;11.752;2022-09-24T00:33:26;95651.91;;;9.49;100.00
71457;BME280;59263;48.160;11.752;2022-09-24T00:35:57;95647.06;;;9.45;100.00
71457;BME280;59263;48.160;11.752;2022-09-24T00:38:23;95649.75;;;9.44;100.00
71457;BME280;59263;48.160;11.752;2022-09-24T00:40:50;95654.13;;;9.43;100.00
71457;BME280;59263;48.160;11.752;2022-09-24T00:43:31;95650.03;;;9.41;100.00
71457;BME280;59263;48.160;11.752;2022-09-24T00:49:16;95654.38;;;9.40;100.00
71457;BME280;59263;48.160;11.752;2022-09-24T00:51:44;95647.31;;;9.42;100.00
71457;BME280;59263;48.160;11.752;2022-09-24T00:54:14;95644.84;;;9.51;100.00
71457;BME280;59263;48.160;11.752;2022-09-24T00:56:43;95641.19;;;9.53;100.00
71457;BME280;59263;48.160;11.752;2022-09-24T00:59:11;95643.75;;;9.53;100.00
71457;BME280;59263;48.160;11.752;2022-09-24T01:01:42;95633.13;;;9.56;100.00
71457;BME280;59263;48.160;11.752;2022-09-24T01:04:08;95634.63;;;9.59;100.00
71457;BME280;59263;48.160;11.752;2022-09-24T01:06:34;95628.50;;;9.60;100.00
71457;BME280;59263;48.160;11.752;2022-09-24T01:09:00;95625.25;;;9.58;100.00
71457;BME280;59263;48.160;11.752;2022-09-24T01:11:47;95625.78;;;9.61;100.00
71457;BME280;59263;48.160;11.752;2022-09-24T01:17:30;95626.78;;;9.51;100.00
71457;BME280;59263;48.160;11.752;2022-09-24T01:25:33;95625.44;;;9.47;100.00
71457;BME280;59263;48.160;11.752;2022-09-24T01:30:45;95611.19;;;9.42;100.00
71457;BME280;59263;48.160;11.752;2022-09-24T01:33:18;95608.16;;;9.47;100.00
71457;BME280;59263;48.160;11.752;2022-09-24T01:35:48;95605.56;;;9.47;100.00
71457;BME280;59263;48.160;11.752;2022-09-24T01:38:20;95600.56;;;9.45;100.00
71457;BME280;59263;48.160;11.752;2022-09-24T01:40:48;95596.91;;;9.38;100.00
71457;BME280;59263;48.160;11.752;2022-09-24T01:43:17;95592.41;;;9.40;100.00
71457;BME280;59263;48.160;11.752;2022-09-24T01:45:43;95596.63;;;9.41;100.00
71457;BME280;59263;48.160;11.752;2022-09-24T01:48:09;95590.78;;;9.39;100.00
71457;BME280;59263;48.160;11.752;2022-09-24T01:50:47;95594.63;;;9.35;100.00
71457;BME280;59263;48.160;11.752;2022-09-24T01:53:24;95593.28;;;9.31;100.00
71457;BME280;59263;48.160;11.752;2022-09-24T01:56:17;95584.03;;;9.29;100.00
71457;BME280;59263;48.160;11.752;2022-09-24T02:01:32;95578.19;;;9.27;100.00
71457;BME280;59263;48.160;11.752;2022-09-24T02:04:05;95574.50;;;9.29;100.00
71457;BME280;59263;48.160;11.752;2022-09-24T02:06:40;95576.13;;;9.30;100.00
71457;BME280;59263;48.160;11.752;2022-09-24T02:09:36;95573.84;;;9.27;100.00
71457;BME280;59263;48.160;11.752;2022-09-24T02:12:16;95570.75;;;9.24;100.00
71457;BME280;59263;48.160;11.752;2022-09-24T02:14:48;95573.44;;;9.22;100.00
71457;BME280;59263;48.160;11.752;2022-09-24T02:17:15;95572.38;;;9.15;100.00
71457;BME280;59263;48.160;11.752;2022-09-24T02:19:41;95572.66;;;9.12;100.00
71457;BME280;59263;48.160;11.752;2022-09-24T02:22:08;95575.13;;;9.04;100.00
71457;BME280;59263;48.160;11.752;2022-09-24T02:24:47;95572.94;;;9.09;100.00
71457;BME280;59263;48.160;11.752;2022-09-24T02:27:14;95556.09;;;9.05;100.00
71457;BME280;59263;48.160;11.752;2022-09-24T02:29:39;95567.53;;;9.02;100.00
71457;BME280;59263;48.160;11.752;2022-09-24T02:32:07;95557.34;;;9.01;100.00
71457;BME280;59263;48.160;11.752;2022-09-24T02:34:37;95560.22;;;8.98;100.00
71457;BME280;59263;48.160;11.752;2022-09-24T02:37:07;95554.75;;;9.01;100.00
71457;BME280;59263;48.160;11.752;2022-09-24T02:39:33;95553.13;;;9.00;100.00
71457;BME280;59263;48.160;11.752;2022-09-24T02:42:01;95550.56;;;9.00;100.00
71457;BME280;59263;48.160;11.752;2022-09-24T02:44:27;95548.50;;;9.03;100.00
71457;BME280;59263;48.160;11.752;2022-09-24T02:46:55;95545.28;;;9.01;100.00
71457;BME280;59263;48.160;11.752;2022-09-24T02:49:20;95540.66;;;8.95;100.00
71457;BME280;59263;48.160;11.752;2022-09-24T02:51:46;95547.47;;;8.86;100.00
71457;BME280;59263;48.160;11.752;2022-09-24T02:54:11;95544.47;;;8.81;100.00
71457;BME280;59263;48.160;11.752;2022-09-24T02:56:37;95542.88;;;8.80;100.00
71457;BME280;59263;48.160;11.752;2022-09-24T02:59:03;95541.50;;;8.76;100.00
71457;BME280;59263;48.160;11.752;2022-09-24T03:01:29;95542.88;;;8.80;100.00
71457;BME280;59263;48.160;11.752;2022-09-24T03:03:55;95542.88;;;8.80;100.00
71457;BME280;59263;48.160;11.752;2022-09-24T03:06:20;95533.34;;;8.71;100.00
71457;BME280;59263;48.160;11.752;2022-09-24T03:08:46;95538.25;;;8.74;100.00
71457;BME280;59263;48.160;11.752;2022-09-24T03:11:12;95536.63;;;8.73;100.00
71457;BME280;59263;48.160;11.752;2022-09-24T03:13:38;95541.09;;;8.71;100.00
71457;BME280;59263;48.160;11.752;2022-09-24T03:16:04;95536.34;;;8.66;100.00
71457;BME280;59263;48.160;11.752;2022-09-24T03:18:30;95540.44;;;8.69;100.00
71457;BME280;59263;48.160;11.752;2022-09-24T03:21:04;95537.16;;;8.77;100.00
71457;BME280;59263;48.160;11.752;2022-09-24T03:23:31;95546.09;;;8.82;100.00
71457;BME280;59263;48.160;11.752;2022-09-24T03:25:56;95548.03;;;8.80;100.00
71457;BME280;59263;48.160;11.752;2022-09-24T03:28:22;95540.41;;;8.88;100.00
71457;BME280;59263;48.160;11.752;2022-09-24T03:30:47;95544.59;;;8.89;100.00
71457;BME280;59263;48.160;11.752;2022-09-24T03:38:26;95546.78;;;8.94;100.00
71457;BME280;59263;48.160;11.752;2022-09-24T03:40:52;95541.63;;;8.94;100.00
71457;BME280;59263;48.160;11.752;2022-09-24T03:43:17;95535.91;;;8.90;100.00
71457;BME280;59263;48.160;11.752;2022-09-24T03:45:42;95542.53;;;8.93;100.00
71457;BME280;59263;48.160;11.752;2022-09-24T03:48:08;95537.66;;;9.00;100.00
71457;BME280;59263;48.160;11.752;2022-09-24T03:50:37;95544.16;;;9.04;100.00
71457;BME280;59263;48.160;11.752;2022-09-24T03:53:02;95531.25;;;9.04;100.00
71457;BME280;59263;48.160;11.752;2022-09-24T03:55:28;95524.84;;;9.08;100.00
71457;BME280;59263;48.160;11.752;2022-09-24T03:57:54;95533.00;;;9.13;100.00
71457;BME280;59263;48.160;11.752;2022-09-24T04:00:19;95531.06;;;9.15;100.00
71457;BME280;59263;48.160;11.752;2022-09-24T04:02:44;95529.19;;;9.17;100.00
71457;BME280;59263;48.160;11.752;2022-09-24T04:05:10;95532.00;;;9.24;100.00
71457;BME280;59263;48.160;11.752;2022-09-24T04:07:35;95530.78;;;9.28;100.00
71457;BME280;59263;48.160;11.752;2022-09-24T04:10:01;95525.47;;;9.29;100.00
71457;BME280;59263;48.160;11.752;2022-09-24T04:12:26;95522.59;;;9.32;100.00
71457;BME280;59263;48.160;11.752;2022-09-24T04:14:51;95515.81;;;9.31;100.00
71457;BME280;59263;48.160;11.752;2022-09-24T04:17:16;95515.50;;;9.34;100.00
71457;BME280;59263;48.160;11.752;2022-09-24T04:19:42;95509.53;;;9.34;100.00
71457;BME280;59263;48.160;11.752;2022-09-24T04:22:08;95515.50;;;9.34;100.00
71457;BME280;59263;48.160;11.752;2022-09-24T04:24:33;95503.28;;;9.36;100.00
71457;BME280;59263;48.160;11.752;2022-09-24T04:26:58;95506.81;;;9.35;100.00
71457;BME280;59263;48.160;11.752;2022-09-24T04:29:24;95499.72;;;9.37;100.00
71457;BME280;59263;48.160;11.752;2022-09-24T04:31:49;95497.16;;;9.37;100.00
71457;BME280;59263;48.160;11.752;2022-09-24T04:34:14;95495.25;;;9.39;100.00
71457;BME280;59263;48.160;11.752;2022-09-24T04:36:39;95507.28;;;9.49;100.00
71457;BME280;59263;48.160;11.752;2022-09-24T04:39:05;95504.81;;;9.57;100.00
71457;BME280;59263;48.160;11.752;2022-09-24T04:41:30;95503.69;;;9.59;100.00
71457;BME280;59263;48.160;11.752;2022-09-24T04:43:56;95503.41;;;9.62;100.00
71457;BME280;59263;48.160;11.752;2022-09-24T04:46:22;95505.84;;;9.64;100.00
71457;BME280;59263;48.160;11.752;2022-09-24T04:48:47;95501.50;;;9.64;100.00
71457;BME280;59263;48.160;11.752;2022-09-24T04:51:13;95498.94;;;9.64;100.00
71457;BME280;59263;48.160;11.752;2022-09-24T04:53:38;95503.94;;;9.66;100.00
71457;BME280;59263;48.160;11.752;2022-09-24T04:56:04;95504.75;;;9.66;100.00
71457;BME280;59263;48.160;11.752;2022-09-24T04:58:31;95498.47;;;9.69;100.00
71457;BME280;59263;48.160;11.752;2022-09-24T05:01:00;95509.47;;;9.71;100.00
71457;BME280;59263;48.160;11.752;2022-09-24T05:03:28;95500.34;;;9.77;100.00
71457;BME280;59263;48.160;11.752;2022-09-24T05:05:53;95508.44;;;9.82;100.00
71457;BME280;59263;48.160;11.752;2022-09-24T05:08:19;95495.69;;;9.80;100.00
71457;BME280;59263;48.160;11.752;2022-09-24T05:10:45;95494.28;;;9.86;100.00
71457;BME280;59263;48.160;11.752;2022-09-24T05:13:10;95499.16;;;9.89;100.00
71457;BME280;59263;48.160;11.752;2022-09-24T05:15:35;95490.59;;;9.88;100.00
71457;BME280;59263;48.160;11.752;2022-09-24T05:18:00;95490.44;;;9.90;100.00
71457;BME280;59263;48.160;11.752;2022-09-24T05:20:26;95490.03;;;9.94;100.00
71457;BME280;59263;48.160;11.752;2022-09-24T05:22:52;95492.84;;;10.01;100.00
71457;BME280;59263;48.160;11.752;2022-09-24T05:25:19;95493.66;;;10.02;100.00
71457;BME280;59263;48.160;11.752;2022-09-24T05:27:48;95498.81;;;10.02;100.00
71457;BME280;59263;48.160;11.752;2022-09-24T05:30:15;95498.66;;;10.03;100.00
71457;BME280;59263;48.160;11.752;2022-09-24T05:32:41;95488.47;;;10.02;100.00
71457;BME280;59263;48.160;11.752;2022-09-24T05:35:07;95497.56;;;10.06;100.00
71457;BME280;59263;48.160;11.752;2022-09-24T05:37:33;95491.41;;;10.07;100.00
71457;BME280;59263;48.160;11.752;2022-09-24T05:39:59;95498.72;;;10.11;100.00
71457;BME280;59263;48.160;11.752;2022-09-24T05:42:44;95504.69;;;10.12;100.00
71457;BME280;59263;48.160;11.752;2022-09-24T05:45:11;95502.50;;;10.17;100.00
71457;BME280;59263;48.160;11.752;2022-09-24T05:47:36;95502.50;;;10.17;100.00
71457;BME280;59263;48.160;11.752;2022-09-24T05:50:02;95501.38;;;10.19;100.00
71457;BME280;59263;48.160;11.752;2022-09-24T05:52:27;95501.88;;;10.23;100.00
71457;BME280;59263;48.160;11.752;2022-09-24T05:54:52;95501.63;;;10.26;100.00
71457;BME280;59263;48.160;11.752;2022-09-24T05:57:18;95504.09;;;10.28;100.00
71457;BME280;59263;48.160;11.752;2022-09-24T05:59:43;95499.56;;;10.30;100.00
71457;BME280;59263;48.160;11.752;2022-09-24T06:02:09;95496.53;;;10.34;100.00
71457;BME280;59263;48.160;11.752;2022-09-24T06:04:34;95496.31;;;10.46;100.00
71457;BME280;59263;48.160;11.752;2022-09-24T06:07:00;95499.53;;;10.48;100.00
71457;BME280;59263;48.160;11.752;2022-09-24T06:09:27;95503.47;;;10.52;100.00
71457;BME280;59263;48.160;11.752;2022-09-24T06:11:52;95496.41;;;10.62;100.00
71457;BME280;59263;48.160;11.752;2022-09-24T06:14:18;95501.94;;;10.67;100.00
71457;BME280;59263;48.160;11.752;2022-09-24T06:16:44;95500.69;;;10.71;100.00
71457;BME280;59263;48.160;11.752;2022-09-24T06:19:09;95483.44;;;10.80;100.00
71457;BME280;59263;48.160;11.752;2022-09-24T06:21:34;95491.03;;;10.81;100.00
71457;BME280;59263;48.160;11.752;2022-09-24T06:24:00;95495.41;;;10.81;100.00
71457;BME280;59263;48.160;11.752;2022-09-24T06:26:25;95489.50;;;10.97;100.00
71457;BME280;59263;48.160;11.752;2022-09-24T06:28:52;95485.13;;;10.97;100.00
71457;BME280;59263;48.160;11.752;2022-09-24T06:31:18;95494.88;;;11.03;100.00
71457;BME280;59263;48.160;11.752;2022-09-24T06:33:44;95496.72;;;11.11;100.00
71457;BME280;59263;48.160;11.752;2022-09-24T06:36:09;95496.09;;;11.17;100.00
71457;BME280;59263;48.160;11.752;2022-09-24T06:38:34;95493.25;;;11.28;100.00
71457;BME280;59263;48.160;11.752;2022-09-24T06:41:03;95489.06;;;11.35;100.00
71457;BME280;59263;48.160;11.752;2022-09-24T06:43:29;95494.09;;;11.45;100.00
71457;BME280;59263;48.160;11.752;2022-09-24T06:45:55;95489.78;;;11.54;100.00
71457;BME280;59263;48.160;11.752;2022-09-24T06:48:21;95498.38;;;11.62;100.00
71457;BME280;59263;48.160;11.752;2022-09-24T06:50:47;95491.78;;;11.68;100.00
71457;BME280;59263;48.160;11.752;2022-09-24T06:53:12;95500.69;;;11.74;100.00
71457;BME280;59263;48.160;11.752;2022-09-24T06:55:38;95504.09;;;11.74;100.00
71457;BME280;59263;48.160;11.752;2022-09-24T06:58:09;95505.38;;;11.78;100.00
71457;BME280;59263;48.160;11.752;2022-09-24T07:00:36;95506.06;;;11.80;100.00
71457;BME280;59263;48.160;11.752;2022-09-24T07:03:03;95510.25;;;11.81;100.00
71457;BME280;59263;48.160;11.752;2022-09-24T07:05:28;95509.00;;;11.85;100.00
71457;BME280;59263;48.160;11.752;2022-09-24T07:07:54;95509.66;;;11.88;100.00
71457;BME280;59263;48.160;11.752;2022-09-24T07:10:19;95511.47;;;11.95;100.00
71457;BME280;59263;48.160;11.752;2022-09-24T07:12:45;95508.69;;;11.97;100.00
71457;BME280;59263;48.160;11.752;2022-09-24T07:15:10;95515.84;;;12.03;100.00
71457;BME280;59263;48.160;11.752;2022-09-24T07:17:35;95517.81;;;12.09;100.00
71457;BME280;59263;48.160;11.752;2022-09-24T07:20:02;95513.13;;;12.13;100.00
71457;BME280;59263;48.160;11.752;2022-09-24T07:22:28;95514.56;;;12.15;100.00
71457;BME280;59263;48.160;11.752;2022-09-24T07:24:53;95510.03;;;12.17;100.00
71457;BME280;59263;48.160;11.752;2022-09-24T07:27:18;95519.44;;;12.18;100.00
71457;BME280;59263;48.160;11.752;2022-09-24T07:29:46;95514.91;;;12.20;100.00
71457;BME280;59263;48.160;11.752;2022-09-24T07:32:11;95511.34;;;12.21;100.00
71457;BME280;59263;48.160;11.752;2022-09-24T07:34:36;95520.59;;;12.24;100.00
71457;BME280;59263;48.160;11.752;2022-09-24T07:37:02;95523.03;;;12.25;100.00
71457;BME280;59263;48.160;11.752;2022-09-24T07:39:27;95527.09;;;12.28;100.00
71457;BME280;59263;48.160;11.752;2022-09-24T07:41:52;95531.13;;;12.30;100.00
71457;BME280;59263;48.160;11.752;2022-09-24T07:44:18;95529.19;;;12.32;100.00
71457;BME280;59263;48.160;11.752;2022-09-24T07:46:50;95525.31;;;12.37;100.00
71457;BME280;59263;48.160;11.752;2022-09-24T07:49:16;95528.56;;;12.39;100.00
71457;BME280;59263;48.160;11.752;2022-09-24T07:51:41;95534.25;;;12.42;100.00
71457;BME280;59263;48.160;11.752;2022-09-24T07:54:07;95543.78;;;12.42;100.00
71457;BME280;59263;48.160;11.752;2022-09-24T07:56:35;95545.44;;;12.43;100.00
71457;BME280;59263;48.160;11.752;2022-09-24T07:59:00;95545.06;;;12.46;100.00
71457;BME280;59263;48.160;11.752;2022-09-24T08:01:26;95545.56;;;12.49;100.00
71457;BME280;59263;48.160;11.752;2022-09-24T08:03:51;95548.50;;;12.54;100.00
71457;BME280;59263;48.160;11.752;2022-09-24T08:06:17;95547.38;;;12.57;100.00
71457;BME280;59263;48.160;11.752;2022-09-24T08:08:43;95545.75;;;12.56;100.00
71457;BME280;59263;48.160;11.752;2022-09-24T08:11:10;95550.63;;;12.59;100.00
71457;BME280;59263;48.160;11.752;2022-09-24T08:13:37;95549.00;;;12.58;100.00
71457;BME280;59263;48.160;11.752;2022-09-24T08:16:04;95551.91;;;12.55;100.00
71457;BME280;59263;48.160;11.752;2022-09-24T08:18:31;95556.44;;;12.53;100.00
71457;BME280;59263;48.160;11.752;2022-09-24T08:20:58;95558.53;;;12.49;100.00
71457;BME280;59263;48.160;11.752;2022-09-24T08:23:26;95567.47;;;12.47;100.00
71457;BME280;59263;48.160;11.752;2022-09-24T08:25:55;95571.38;;;12.43;100.00
71457;BME280;59263;48.160;11.752;2022-09-24T08:28:20;95567.78;;;12.35;100.00
71457;BME280;59263;48.160;11.752;2022-09-24T08:30:46;95565.03;;;12.29;100.00
71457;BME280;59263;48.160;11.752;2022-09-24T08:33:12;95577.31;;;12.27;100.00
71457;BME280;59263;48.160;11.752;2022-09-24T08:35:38;95572.78;;;12.21;100.00
71457;BME280;59263;48.160;11.752;2022-09-24T08:38:07;95571.31;;;12.18;100.00
71457;BME280;59263;48.160;11.752;2022-09-24T08:40:38;95577.63;;;12.16;100.00
71457;BME280;59263;48.160;11.752;2022-09-24T08:45:48;95571.94;;;12.12;100.00
71457;BME280;59263;48.160;11.752;2022-09-24T08:48:38;95572.13;;;12.10;100.00
71457;BME280;59263;48.160;11.752;2022-09-24T08:51:06;95573.22;;;12.08;100.00
71457;BME280;59263;48.160;11.752;2022-09-24T08:54:03;95573.72;;;12.11;100.00
71457;BME280;59263;48.160;11.752;2022-09-24T08:56:33;95574.53;;;12.12;100.00
71457;BME280;59263;48.160;11.752;2022-09-24T08:59:03;95578.78;;;12.13;100.00
71457;BME280;59263;48.160;11.752;2022-09-24T09:01:43;95583.78;;;12.15;100.00
71457;BME280;59263;48.160;11.752;2022-09-24T09:04:29;95582.69;;;12.17;100.00
71457;BME280;59263;48.160;11.752;2022-09-24T09:10:31;95588.34;;;12.21;100.00
71457;BME280;59263;48.160;11.752;2022-09-24T09:15:11;95599.53;;;12.21;100.00
71457;BME280;59263;48.160;11.752;2022-09-24T09:17:54;95599.53;;;12.21;100.00
71457;BME280;59263;48.160;11.752;2022-09-24T09:20:39;95608.31;;;12.20;100.00
71457;BME280;59263;48.160;11.752;2022-09-24T09:23:12;95609.13;;;12.21;100.00
71457;BME280;59263;48.160;11.752;2022-09-24T09:25:45;95603.13;;;12.20;100.00
71457;BME280;59263;48.160;11.752;2022-09-24T09:28:15;95609.25;;;12.19;100.00
71457;BME280;59263;48.160;11.752;2022-09-24T09:36:53;95607.00;;;12.24;100.00
71457;BME280;59263;48.160;11.752;2022-09-24T09:39:54;95607.34;;;12.29;100.00
71457;BME280;59263;48.160;11.752;2022-09-24T09:42:31;95606.41;;;12.39;100.00
71457;BME280;59263;48.160;11.752;2022-09-24T09:45:07;95605.44;;;12.48;100.00
71457;BME280;59263;48.160;11.752;2022-09-24T09:47:42;95596.84;;;12.55;100.00
71457;BME280;59263;48.160;11.752;2022-09-24T09:52:54;95604.81;;;12.70;100.00
71457;BME280;59263;48.160;11.752;2022-09-24T09:55:32;95603.81;;;12.71;100.00
71457;BME280;59263;48.160;11.752;2022-09-24T09:58:33;95606.09;;;12.74;100.00
71457;BME280;59263;48.160;11.752;2022-09-24T10:01:07;95604.81;;;12.70;100.00
71457;BME280;59263;48.160;11.752;2022-09-24T10:03:53;95597.69;;;12.72;100.00
71457;BME280;59263;48.160;11.752;2022-09-24T10:06:28;95606.59;;;12.78;100.00
71457;BME280;59263;48.160;11.752;2022-09-24T10:09:07;95606.09;;;12.82;100.00
71457;BME280;59263;48.160;11.752;2022-09-24T10:11:35;95600.09;;;12.90;100.00
71457;BME280;59263;48.160;11.752;2022-09-24T10:14:07;95598.47;;;12.97;100.00
71457;BME280;59263;48.160;11.752;2022-09-24T10:16:42;95602.19;;;13.11;100.00
71457;BME280;59263;48.160;11.752;2022-09-24T10:19:21;95598.31;;;13.15;100.00
71457;BME280;59263;48.160;11.752;2022-09-24T10:21:48;95598.97;;;13.09;100.00
71457;BME280;59263;48.160;11.752;2022-09-24T10:24:18;95594.72;;;13.16;100.00
71457;BME280;59263;48.160;11.752;2022-09-24T10:26:45;95597.66;;;13.13;100.00
71457;BME280;59263;48.160;11.752;2022-09-24T10:32:00;95596.38;;;13.17;100.00
71457;BME280;59263;48.160;11.752;2022-09-24T10:34:27;95600.59;;;13.10;100.00
71457;BME280;59263;48.160;11.752;2022-09-24T10:36:58;95603.19;;;13.10;100.00
71457;BME280;59263;48.160;11.752;2022-09-24T10:39:24;95606.09;;;13.15;100.00
71457;BME280;59263;48.160;11.752;2022-09-24T10:41:51;95608.06;;;13.13;100.00
71457;BME280;59263;48.160;11.752;2022-09-24T10:44:19;95599.28;;;13.22;100.00
71457;BME280;59263;48.160;11.752;2022-09-24T10:55:11;95599.63;;;13.36;100.00
71457;BME280;59263;48.160;11.752;2022-09-24T10:57:58;95595.03;;;13.38;100.00
71457;BME280;59263;48.160;11.752;2022-09-24T11:00:37;95596.22;;;13.35;100.00
71457;BME280;59263;48.160;11.752;2022-09-24T11:06:13;95598.28;;;13.48;100.00
71457;BME280;59263;48.160;11.752;2022-09-24T11:09:04;95595.97;;;13.53;100.00
71457;BME280;59263;48.160;11.752;2022-09-24T11:25:38;95600.84;;;13.56;100.00
71457;BME280;59263;48.160;11.752;2022-09-24T11:34:03;95601.06;;;13.46;100.00
71457;BME280;59263;48.160;11.752;2022-09-24T11:36:37;95606.72;;;13.50;100.00
71457;BME280;59263;48.160;11.752;2022-09-24T11:42:12;95590.06;;;13.75;100.00
71457;BME280;59263;48.160;11.752;2022-09-24T11:48:14;95585.25;;;13.56;100.00
71457;BME280;59263;48.160;11.752;2022-09-24T11:53:36;95574.81;;;13.64;100.00
71457;BME280;59263;48.160;11.752;2022-09-24T11:58:50;95585.88;;;13.66;100.00
71457;BME280;59263;48.160;11.752;2022-09-24T12:01:23;95573.22;;;13.63;100.00
71457;BME280;59263;48.160;11.752;2022-09-24T12:06:45;95577.09;;;13.67;100.00
71457;BME280;59263;48.160;11.752;2022-09-24T12:12:02;95579.31;;;13.78;100.00
71457;BME280;59263;48.160;11.752;2022-09-24T12:15:00;95575.28;;;13.76;100.00
71457;BME280;59263;48.160;11.752;2022-09-24T12:20:19;95563.28;;;13.67;100.00
71457;BME280;59263;48.160;11.752;2022-09-24T12:22:51;95568.34;;;13.68;100.00
71457;BME280;59263;48.160;11.752;2022-09-24T12:25:26;95575.09;;;13.77;100.00
71457;BME280;59263;48.160;11.752;2022-09-24T12:27:53;95572.81;;;13.83;100.00
71457;BME280;59263;48.160;11.752;2022-09-24T12:30:46;95576.72;;;13.78;100.00
71457;BME280;59263;48.160;11.752;2022-09-24T12:33:56;95570.75;;;13.70;100.00
71457;BME280;59263;48.160;11.752;2022-09-24T12:36:51;95565.56;;;13.70;100.00
71457;BME280;59263;48.160;11.752;2022-09-24T12:39:24;95561.78;;;13.80;100.00
71457;BME280;59263;48.160;11.752;2022-09-24T12:42:03;95575.59;;;13.81;100.00
71457;BME280;59263;48.160;11.752;2022-09-24T12:44:44;95561.63;;;13.74;100.00
71457;BME280;59263;48.160;11.752;2022-09-24T12:47:16;95563.13;;;13.68;100.00
71457;BME280;59263;48.160;11.752;2022-09-24T12:49:47;95563.78;;;13.62;100.00
71457;BME280;59263;48.160;11.752;2022-09-24T12:52:36;95555.97;;;13.70;100.00
71457;BME280;59263;48.160;11.752;2022-09-24T12:55:03;95558.84;;;13.75;100.00
71457;BME280;59263;48.160;11.752;2022-09-24T12:57:40;95562.97;;;14.01;100.00
71457;BME280;59263;48.160;11.752;2022-09-24T13:02:57;95555.13;;;14.09;100.00
71457;BME280;59263;48.160;11.752;2022-09-24T13:10:34;95537.44;;;14.27;100.00
71457;BME280;59263;48.160;11.752;2022-09-24T13:13:01;95546.19;;;14.35;100.00
71457;BME280;59263;48.160;11.752;2022-09-24T13:15:38;95542.66;;;14.27;100.00
71457;BME280;59263;48.160;11.752;2022-09-24T13:20:37;95534.75;;;14.21;100.00
71457;BME280;59263;48.160;11.752;2022-09-24T13:23:28;95542.22;;;14.24;100.00
71457;BME280;59263;48.160;11.752;2022-09-24T13:26:01;95544.97;;;14.22;100.00
71457;BME280;59263;48.160;11.752;2022-09-24T13:28:29;95544.84;;;14.16;100.00
71457;BME280;59263;48.160;11.752;2022-09-24T13:33:48;95539.53;;;14.09;100.00
71457;BME280;59263;48.160;11.752;2022-09-24T13:39:19;95541.34;;;14.00;100.00
71457;BME280;59263;48.160;11.752;2022-09-24T13:44:29;95547.16;;;14.34;100.00
71457;BME280;59263;48.160;11.752;2022-09-24T13:47:00;95532.34;;;14.34;100.00
71457;BME280;59263;48.160;11.752;2022-09-24T13:49:28;95534.47;;;14.39;100.00
71457;BME280;59263;48.160;11.752;2022-09-24T13:52:37;95535.66;;;14.28;100.00
71457;BME280;59263;48.160;11.752;2022-09-24T13:58:02;95533.56;;;14.23;100.00
71457;BME280;59263;48.160;11.752;2022-09-24T14:00:28;95533.53;;;14.32;100.00
71457;BME280;59263;48.160;11.752;2022-09-24T14:05:45;95530.16;;;14.46;100.00
71457;BME280;59263;48.160;11.752;2022-09-24T14:08:16;95526.53;;;14.32;100.00
71457;BME280;59263;48.160;11.752;2022-09-24T14:10:43;95536.75;;;14.34;100.00
71457;BME280;59263;48.160;11.752;2022-09-24T14:15:49;95525.91;;;14.53;100.00
71457;BME280;59263;48.160;11.752;2022-09-24T14:18:14;95528.34;;;14.55;100.00
71457;BME280;59263;48.160;11.752;2022-09-24T14:20:39;95528.88;;;14.42;100.00
71457;BME280;59263;48.160;11.752;2022-09-24T14:23:05;95537.41;;;14.36;100.00
71457;BME280;59263;48.160;11.752;2022-09-24T14:25:35;95528.31;;;14.32;100.00
71457;BME280;59263;48.160;11.752;2022-09-24T14:28:02;95530.28;;;14.29;100.00
71457;BME280;59263;48.160;11.752;2022-09-24T14:30:31;95536.28;;;14.30;100.00
71457;BME280;59263;48.160;11.752;2022-09-24T14:33:04;95530.28;;;14.29;100.00
71457;BME280;59263;48.160;11.752;2022-09-24T14:35:36;95531.56;;;14.34;100.00
71457;BME280;59263;48.160;11.752;2022-09-24T14:38:05;95535.03;;;14.49;100.00
71457;BME280;59263;48.160;11.752;2022-09-24T14:40:47;95526.94;;;14.44;100.00
71457;BME280;59263;48.160;11.752;2022-09-24T14:46:43;95524.94;;;14.23;100.00
71457;BME280;59263;48.160;11.752;2022-09-24T14:51:51;95525.00;;;14.15;100.00
71457;BME280;59263;48.160;11.752;2022-09-24T14:54:33;95520.00;;;14.13;100.00
71457;BME280;59263;48.160;11.752;2022-09-24T14:59:44;95516.59;;;14.13;100.00
71457;BME280;59263;48.160;11.752;2022-09-24T15:02:30;95523.25;;;14.07;100.00
71457;BME280;59263;48.160;11.752;2022-09-24T15:05:01;95518.72;;;14.09;100.00
71457;BME280;59263;48.160;11.752;2022-09-24T15:07:28;95527.47;;;14.08;100.00